Time;durP1;ratioP1;P1;durP2;ratioP2;P2;SDS_P1;SDS_P2;PMS_P1;PMS_P2;Temp;Humidity;BMP_temperature;BMP_pressure;BME280_temperature;BME280_humidity;BME280_pressure;Samples;Min_cycle;Max_cycle;Signal;HPM_P1;HPM_P2
2023/06/02 00:00:51;;;;;;;9.30;4.13;;;;;;;;;;5073417;28;20494;-69
2023/06/02 00:03:19;;;;;;;17.97;4.00;;;;;;;;;;5073255;28;20470;-70
2023/06/02 00:05:49;;;;;;;9.97;3.93;;;;;;;;;;5073636;28;20444;-69
2023/06/02 00:08:17;;;;;;;13.47;4.27;;;;;;;;;;5073271;28;20434;-70
2023/06/02 00:10:45;;;;;;;9.10;4.30;;;;;;;;;;5073633;28;20838;-69
2023/06/02 00:13:12;;;;;;;9.00;3.73;;;;;;;;;;5073411;28;20448;-69
2023/06/02 00:15:40;;;;;;;13.90;4.00;;;;;;;;;;5073874;28;20508;-70
2023/06/02 00:18:07;;;;;;;11.40;3.80;;;;;;;;;;5073696;28;20426;-70
2023/06/02 00:20:34;;;;;;;11.63;4.13;;;;;;;;;;5073438;28;20614;-70
2023/06/02 00:23:03;;;;;;;14.07;3.90;;;;;;;;;;5073695;28;20645;-70
2023/06/02 00:25:32;;;;;;;9.90;3.73;;;;;;;;;;5073089;28;20452;-70
2023/06/02 00:27:59;;;;;;;18.33;4.80;;;;;;;;;;5073622;28;20477;-70
2023/06/02 00:30:26;;;;;;;16.83;3.67;;;;;;;;;;5073328;28;20496;-70
2023/06/02 00:32:54;;;;;;;11.60;3.70;;;;;;;;;;5072841;28;20448;-70
2023/06/02 00:35:21;;;;;;;7.00;3.27;;;;;;;;;;5073797;28;20515;-69
2023/06/02 00:37:49;;;;;;;9.90;3.73;;;;;;;;;;5072926;28;20528;-70
2023/06/02 00:40:16;;;;;;;7.43;3.70;;;;;;;;;;5073238;28;20537;-70
2023/06/02 00:42:45;;;;;;;14.07;4.07;;;;;;;;;;5073070;28;20531;-72
2023/06/02 00:45:14;;;;;;;13.43;4.43;;;;;;;;;;5073321;28;20835;-70
2023/06/02 00:47:41;;;;;;;17.90;5.17;;;;;;;;;;5072892;28;20881;-70
2023/06/02 00:50:09;;;;;;;8.07;3.70;;;;;;;;;;5072782;28;20917;-70
2023/06/02 00:52:38;;;;;;;9.63;4.70;;;;;;;;;;5072840;28;20925;-70
2023/06/02 00:55:05;;;;;;;11.90;3.90;;;;;;;;;;5072774;28;20444;-70
2023/06/02 00:57:34;;;;;;;6.90;4.90;;;;;;;;;;5073113;28;20444;-70
2023/06/02 01:00:05;;;;;;;7.93;3.97;;;;;;;;;;5072989;28;20461;-70
2023/06/02 01:02:32;;;;;;;13.27;4.00;;;;;;;;;;5073429;28;20526;-69
2023/06/02 01:05:00;;;;;;;7.87;3.47;;;;;;;;;;5072616;28;20527;-69
2023/06/02 01:07:28;;;;;;;9.30;4.30;;;;;;;;;;5073019;28;20445;-70
2023/06/02 01:09:56;;;;;;;13.10;4.30;;;;;;;;;;5075383;28;20855;-70
2023/06/02 01:12:24;;;;;;;13.10;4.87;;;;;;;;;;5076862;28;20436;-70
2023/06/02 01:14:51;;;;;;;7.97;3.93;;;;;;;;;;5076384;28;20447;-70
2023/06/02 01:17:19;;;;;;;12.07;4.67;;;;;;;;;;5076413;28;20463;-70
2023/06/02 01:19:49;;;;;;;9.17;3.77;;;;;;;;;;5076907;28;20436;-70
2023/06/02 01:22:19;;;;;;;10.90;4.00;;;;;;;;;;5076993;28;20453;-70
2023/06/02 01:24:49;;;;;;;9.20;4.50;;;;;;;;;;5076881;28;20475;-70
2023/06/02 01:27:16;;;;;;;11.23;4.67;;;;;;;;;;5076649;28;20809;-70
2023/06/02 01:29:44;;;;;;;13.03;4.70;;;;;;;;;;5076877;28;20441;-70
2023/06/02 01:32:15;;;;;;;9.83;4.33;;;;;;;;;;5076584;28;20436;-70
2023/06/02 01:34:45;;;;;;;14.90;5.27;;;;;;;;;;5076167;28;20436;-70
2023/06/02 01:37:14;;;;;;;17.33;4.93;;;;;;;;;;5076687;28;20472;-70
2023/06/02 01:39:42;;;;;;;20.30;4.70;;;;;;;;;;5075983;28;20953;-70
2023/06/02 01:42:12;;;;;;;14.23;4.33;;;;;;;;;;5076013;28;20443;-69
2023/06/02 01:44:39;;;;;;;9.63;4.73;;;;;;;;;;5075985;28;20486;-70
2023/06/02 01:47:07;;;;;;;10.80;4.07;;;;;;;;;;5076222;28;20447;-70
2023/06/02 01:49:34;;;;;;;10.47;4.10;;;;;;;;;;5075752;28;20440;-70
2023/06/02 01:52:02;;;;;;;10.87;4.37;;;;;;;;;;5076755;28;20443;-70
2023/06/02 01:54:29;;;;;;;10.50;5.00;;;;;;;;;;5076002;28;20454;-70
2023/06/02 01:56:56;;;;;;;10.33;4.83;;;;;;;;;;5076101;28;20440;-70
2023/06/02 01:59:25;;;;;;;10.73;4.30;;;;;;;;;;5075668;28;20442;-70
2023/06/02 02:01:52;;;;;;;9.37;4.33;;;;;;;;;;5075711;28;20932;-70
2023/06/02 02:04:20;;;;;;;8.47;4.03;;;;;;;;;;5075830;28;20813;-70
2023/06/02 02:06:49;;;;;;;12.30;5.27;;;;;;;;;;5075907;28;20534;-70
2023/06/02 02:09:16;;;;;;;12.53;5.40;;;;;;;;;;5075729;28;20440;-69
2023/06/02 02:11:43;;;;;;;10.17;4.07;;;;;;;;;;5075442;28;20947;-70
2023/06/02 02:14:13;;;;;;;8.43;4.20;;;;;;;;;;5075423;28;20442;-70
2023/06/02 02:16:44;;;;;;;8.87;4.90;;;;;;;;;;5075320;28;20476;-70
2023/06/02 02:19:12;;;;;;;10.50;4.33;;;;;;;;;;5076192;28;20461;-70
2023/06/02 02:21:40;;;;;;;14.37;5.00;;;;;;;;;;5074645;28;20876;-70
2023/06/02 02:24:07;;;;;;;11.50;4.70;;;;;;;;;;5075395;28;20493;-71
2023/06/02 02:26:35;;;;;;;9.30;4.27;;;;;;;;;;5075580;28;20796;-70
2023/06/02 02:29:02;;;;;;;8.67;4.87;;;;;;;;;;5075166;28;20441;-70
2023/06/02 02:31:30;;;;;;;8.83;4.40;;;;;;;;;;5074960;28;20932;-70
2023/06/02 02:33:59;;;;;;;9.27;4.00;;;;;;;;;;5075060;28;20453;-70
2023/06/02 02:36:26;;;;;;;9.50;4.37;;;;;;;;;;5075116;28;20452;-70
2023/06/02 02:38:53;;;;;;;10.43;4.13;;;;;;;;;;5075262;28;20543;-70
2023/06/02 02:41:20;;;;;;;12.17;4.10;;;;;;;;;;5075189;28;20452;-70
2023/06/02 02:43:47;;;;;;;8.70;3.87;;;;;;;;;;5074888;28;20468;-70
2023/06/02 02:46:14;;;;;;;12.40;4.30;;;;;;;;;;5075305;28;20905;-70
2023/06/02 02:48:42;;;;;;;14.37;4.07;;;;;;;;;;5075402;28;20437;-70
2023/06/02 02:51:10;;;;;;;9.40;4.67;;;;;;;;;;5075118;28;20428;-70
2023/06/02 02:53:38;;;;;;;12.93;4.40;;;;;;;;;;5075202;28;20471;-70
2023/06/02 02:56:06;;;;;;;9.47;3.80;;;;;;;;;;5075143;28;20829;-70
2023/06/02 02:58:36;;;;;;;11.37;4.27;;;;;;;;;;5074646;28;20542;-70
2023/06/02 03:01:04;;;;;;;6.80;3.80;;;;;;;;;;5075001;28;20447;-70
2023/06/02 03:03:32;;;;;;;8.93;4.80;;;;;;;;;;5074771;28;20472;-70
2023/06/02 03:06:01;;;;;;;17.37;4.93;;;;;;;;;;5074356;28;20441;-70
2023/06/02 03:08:32;;;;;;;15.63;4.80;;;;;;;;;;5074408;28;20440;-70
2023/06/02 03:10:59;;;;;;;9.63;3.97;;;;;;;;;;5074272;28;20438;-70
2023/06/02 03:13:26;;;;;;;18.27;4.80;;;;;;;;;;5074624;28;20450;-70
2023/06/02 03:15:53;;;;;;;10.53;4.13;;;;;;;;;;5074155;28;20475;-70
2023/06/02 03:18:21;;;;;;;11.30;4.23;;;;;;;;;;5074292;28;20519;-70
2023/06/02 03:20:48;;;;;;;6.53;3.77;;;;;;;;;;5074394;28;20445;-70
2023/06/02 03:23:16;;;;;;;21.57;4.43;;;;;;;;;;5074322;28;20852;-70
2023/06/02 03:25:44;;;;;;;11.97;4.23;;;;;;;;;;5074364;28;20440;-70
2023/06/02 03:28:12;;;;;;;11.57;4.73;;;;;;;;;;5074360;28;20527;-70
2023/06/02 03:30:39;;;;;;;11.10;4.87;;;;;;;;;;5074206;28;20442;-70
2023/06/02 03:33:06;;;;;;;10.17;4.47;;;;;;;;;;5073759;28;20496;-70
2023/06/02 03:35:33;;;;;;;11.03;4.63;;;;;;;;;;5074698;28;20443;-70
2023/06/02 03:38:00;;;;;;;9.10;4.60;;;;;;;;;;5074767;28;20441;-70
2023/06/02 03:40:27;;;;;;;9.67;4.20;;;;;;;;;;5073950;28;20449;-70
2023/06/02 03:42:56;;;;;;;10.37;4.93;;;;;;;;;;5073997;28;20445;-70
2023/06/02 03:45:23;;;;;;;14.00;4.37;;;;;;;;;;5073827;28;20440;-70
2023/06/02 03:47:50;;;;;;;10.27;3.90;;;;;;;;;;5073664;28;20441;-70
2023/06/02 03:50:18;;;;;;;7.77;4.03;;;;;;;;;;5073452;28;20455;-71
2023/06/02 03:52:45;;;;;;;15.57;4.57;;;;;;;;;;5072581;28;20437;-70
2023/06/02 03:55:12;;;;;;;18.53;5.13;;;;;;;;;;5072751;28;20440;-71
2023/06/02 03:57:39;;;;;;;12.07;3.83;;;;;;;;;;5073166;28;20459;-71
2023/06/02 04:00:10;;;;;;;14.17;4.30;;;;;;;;;;5073245;28;20437;-70
2023/06/02 04:02:37;;;;;;;9.57;4.40;;;;;;;;;;5073085;28;20501;-71
2023/06/02 04:05:05;;;;;;;12.63;5.00;;;;;;;;;;5073846;28;20481;-70
2023/06/02 04:07:32;;;;;;;7.53;3.87;;;;;;;;;;5073182;28;20794;-70
2023/06/02 04:09:59;;;;;;;13.23;4.87;;;;;;;;;;5073495;28;20794;-70
2023/06/02 04:12:27;;;;;;;11.83;4.53;;;;;;;;;;5073436;28;20531;-70
2023/06/02 04:14:54;;;;;;;12.20;5.43;;;;;;;;;;5073570;28;20539;-71
2023/06/02 04:17:22;;;;;;;20.40;5.27;;;;;;;;;;5073661;28;20472;-71
2023/06/02 04:19:49;;;;;;;11.43;5.20;;;;;;;;;;5073462;28;20445;-71
2023/06/02 04:22:17;;;;;;;20.03;5.07;;;;;;;;;;5073272;28;20447;-70
2023/06/02 04:24:45;;;;;;;14.13;4.17;;;;;;;;;;5073352;28;20484;-70
2023/06/02 04:27:12;;;;;;;14.93;4.00;;;;;;;;;;5072713;28;20445;-71
2023/06/02 04:29:40;;;;;;;9.47;4.90;;;;;;;;;;5072769;28;20440;-70
2023/06/02 04:32:08;;;;;;;9.23;4.47;;;;;;;;;;5073166;28;20437;-70
2023/06/02 04:34:36;;;;;;;9.70;4.90;;;;;;;;;;5073331;28;20794;-76
2023/06/02 04:37:05;;;;;;;14.57;5.23;;;;;;;;;;5073214;28;20436;-77
2023/06/02 04:39:34;;;;;;;15.83;4.50;;;;;;;;;;5072933;28;20444;-70
2023/06/02 04:42:03;;;;;;;12.23;4.20;;;;;;;;;;5072827;28;20437;-70
2023/06/02 04:44:30;;;;;;;6.43;4.90;;;;;;;;;;5072366;28;20485;-70
2023/06/02 04:46:57;;;;;;;12.03;4.30;;;;;;;;;;5073039;28;20443;-71
2023/06/02 04:49:24;;;;;;;9.70;4.50;;;;;;;;;;5072897;28;20451;-70
2023/06/02 04:51:55;;;;;;;12.67;4.63;;;;;;;;;;5072854;28;20535;-70
2023/06/02 04:54:22;;;;;;;11.80;4.67;;;;;;;;;;5073288;28;20425;-70
2023/06/02 04:56:49;;;;;;;7.60;3.57;;;;;;;;;;5072691;28;20921;-70
2023/06/02 04:59:17;;;;;;;7.17;3.93;;;;;;;;;;5073374;28;20498;-70
2023/06/02 05:01:44;;;;;;;13.87;4.40;;;;;;;;;;5072924;28;20440;-69
2023/06/02 05:04:11;;;;;;;12.10;4.20;;;;;;;;;;5072620;28;20980;-70
2023/06/02 05:06:38;;;;;;;16.20;4.10;;;;;;;;;;5072514;28;20444;-70
2023/06/02 05:09:07;;;;;;;10.73;3.70;;;;;;;;;;5072635;28;20804;-70
2023/06/02 05:11:34;;;;;;;7.37;3.90;;;;;;;;;;5073113;28;20487;-71
2023/06/02 05:14:02;;;;;;;7.50;3.80;;;;;;;;;;5073071;28;20536;-70
2023/06/02 05:16:29;;;;;;;13.00;3.93;;;;;;;;;;5072747;28;20486;-70
2023/06/02 05:18:57;;;;;;;14.40;4.53;;;;;;;;;;5072822;28;20447;-70
2023/06/02 05:21:25;;;;;;;12.07;4.00;;;;;;;;;;5072535;28;20455;-70
2023/06/02 05:23:52;;;;;;;9.90;3.80;;;;;;;;;;5072374;28;20569;-70
2023/06/02 05:26:20;;;;;;;9.10;4.60;;;;;;;;;;5072462;28;20449;-70
2023/06/02 05:28:50;;;;;;;17.40;3.53;;;;;;;;;;5072301;28;20866;-70
2023/06/02 05:31:18;;;;;;;8.93;4.43;;;;;;;;;;5072651;28;20444;-70
2023/06/02 05:33:45;;;;;;;13.20;3.80;;;;;;;;;;5071984;28;20448;-69
2023/06/02 05:36:12;;;;;;;10.47;3.30;;;;;;;;;;5072363;28;20444;-70
2023/06/02 05:38:41;;;;;;;11.70;3.60;;;;;;;;;;5072244;28;20448;-70
2023/06/02 05:41:08;;;;;;;8.00;4.43;;;;;;;;;;5072995;28;20445;-70
2023/06/02 05:43:37;;;;;;;11.03;3.93;;;;;;;;;;5072618;28;20441;-69
2023/06/02 05:46:04;;;;;;;10.03;3.90;;;;;;;;;;5072248;28;20450;-69
2023/06/02 05:48:31;;;;;;;10.37;4.03;;;;;;;;;;5072253;28;20930;-70
2023/06/02 05:50:58;;;;;;;7.73;3.20;;;;;;;;;;5072663;28;20794;-70
2023/06/02 05:53:25;;;;;;;12.70;3.60;;;;;;;;;;5072478;28;20441;-70
2023/06/02 05:55:53;;;;;;;5.80;3.40;;;;;;;;;;5073384;28;20443;-69
2023/06/02 05:58:20;;;;;;;9.17;3.60;;;;;;;;;;5076188;28;20433;-70
2023/06/02 06:00:49;;;;;;;13.27;3.50;;;;;;;;;;5075702;28;20441;-70
2023/06/02 06:03:16;;;;;;;11.50;3.37;;;;;;;;;;5076253;28;20442;-70
2023/06/02 06:05:43;;;;;;;14.13;3.57;;;;;;;;;;5076008;28;20481;-70
2023/06/02 06:08:10;;;;;;;14.43;3.73;;;;;;;;;;5076158;28;20441;-70
2023/06/02 06:10:42;;;;;;;9.33;4.47;;;;;;;;;;5076404;28;20460;-70
2023/06/02 06:13:09;;;;;;;10.30;3.60;;;;;;;;;;5075830;28;20425;-69
2023/06/02 06:15:36;;;;;;;13.60;4.20;;;;;;;;;;5075731;28;20489;-70
2023/06/02 06:18:05;;;;;;;10.70;4.20;;;;;;;;;;5076009;28;20436;-70
2023/06/02 06:20:32;;;;;;;13.70;3.90;;;;;;;;;;5075348;28;20446;-70
2023/06/02 06:22:59;;;;;;;14.23;3.90;;;;;;;;;;5075253;28;20446;-69
2023/06/02 06:25:26;;;;;;;13.87;4.10;;;;;;;;;;5075238;28;20473;-70
2023/06/02 06:27:53;;;;;;;12.50;4.10;;;;;;;;;;5075445;28;20443;-70
2023/06/02 06:30:21;;;;;;;25.77;4.63;;;;;;;;;;5075751;28;20451;-70
2023/06/02 06:32:49;;;;;;;20.03;4.50;;;;;;;;;;5075095;28;20457;-69
2023/06/02 06:35:17;;;;;;;11.50;4.10;;;;;;;;;;5075400;28;20445;-69
2023/06/02 06:37:44;;;;;;;11.87;3.87;;;;;;;;;;5075726;28;20443;-70
2023/06/02 06:40:12;;;;;;;21.70;8.83;;;;;;;;;;5075852;28;20447;-70
2023/06/02 06:42:39;;;;;;;23.77;14.60;;;;;;;;;;5075134;28;20441;-70
2023/06/02 06:45:07;;;;;;;20.10;5.80;;;;;;;;;;5075097;28;20499;-70
2023/06/02 06:47:34;;;;;;;10.27;4.63;;;;;;;;;;5075142;28;20444;-70
2023/06/02 06:50:01;;;;;;;9.53;4.30;;;;;;;;;;5074765;28;20959;-70
2023/06/02 06:52:30;;;;;;;14.03;3.80;;;;;;;;;;5075566;28;20529;-70
2023/06/02 06:54:57;;;;;;;15.73;4.50;;;;;;;;;;5074585;28;20464;-71
2023/06/02 06:57:24;;;;;;;10.67;3.67;;;;;;;;;;5074723;28;20951;-70
2023/06/02 06:59:51;;;;;;;21.43;4.70;;;;;;;;;;5074811;28;20529;-70
2023/06/02 07:02:19;;;;;;;11.30;3.77;;;;;;;;;;5075138;28;20447;-70
2023/06/02 07:04:46;;;;;;;11.30;4.60;;;;;;;;;;5074704;28;20478;-70
2023/06/02 07:07:13;;;;;;;8.33;4.93;;;;;;;;;;5074294;28;20447;-70
2023/06/02 07:09:42;;;;;;;14.03;3.60;;;;;;;;;;5074334;28;20453;-70
2023/06/02 07:12:09;;;;;;;12.30;4.20;;;;;;;;;;5074583;28;20801;-70
2023/06/02 07:14:37;;;;;;;13.63;4.00;;;;;;;;;;5074532;28;20796;-70
2023/06/02 07:17:04;;;;;;;17.77;4.57;;;;;;;;;;5074688;28;20478;-70
2023/06/02 07:19:31;;;;;;;12.27;4.13;;;;;;;;;;5074239;28;20470;-70
2023/06/02 07:21:58;;;;;;;15.13;4.27;;;;;;;;;;5074472;28;20441;-70
2023/06/02 07:24:25;;;;;;;9.10;4.00;;;;;;;;;;5074228;28;20495;-70
2023/06/02 07:26:54;;;;;;;11.23;5.83;;;;;;;;;;5074050;28;20998;-70
2023/06/02 07:29:22;;;;;;;9.40;4.13;;;;;;;;;;5074177;28;20538;-70
2023/06/02 07:31:49;;;;;;;15.60;4.40;;;;;;;;;;5074188;28;20447;-70
2023/06/02 07:34:16;;;;;;;10.63;5.53;;;;;;;;;;5073699;28;20445;-70
2023/06/02 07:36:44;;;;;;;16.27;4.90;;;;;;;;;;5074407;28;20938;-70
2023/06/02 07:39:12;;;;;;;12.40;5.60;;;;;;;;;;5073899;28;20746;-70
2023/06/02 07:41:39;;;;;;;13.80;4.60;;;;;;;;;;5073697;28;20455;-70
2023/06/02 07:44:07;;;;;;;12.60;4.73;;;;;;;;;;5073518;28;20450;-70
2023/06/02 07:46:34;;;;;;;14.07;4.00;;;;;;;;;;5074042;28;20495;-70
2023/06/02 07:49:02;;;;;;;20.07;5.90;;;;;;;;;;5073397;28;20442;-70
2023/06/02 07:51:29;;;;;;;16.10;4.67;;;;;;;;;;5073793;28;20441;-70
2023/06/02 07:53:56;;;;;;;11.70;4.10;;;;;;;;;;5073887;28;20447;-70
2023/06/02 07:56:24;;;;;;;11.77;5.10;;;;;;;;;;5073637;28;20485;-70
2023/06/02 07:58:51;;;;;;;19.20;4.90;;;;;;;;;;5073336;28;20972;-70
2023/06/02 08:01:19;;;;;;;15.47;5.90;;;;;;;;;;5073974;28;20454;-70
2023/06/02 08:03:47;;;;;;;9.73;4.50;;;;;;;;;;5073817;28;20443;-70
2023/06/02 08:06:14;;;;;;;10.77;5.13;;;;;;;;;;5074027;28;20484;-70
2023/06/02 08:08:44;;;;;;;11.90;4.10;;;;;;;;;;5073615;28;20452;-71
2023/06/02 08:11:12;;;;;;;11.53;3.90;;;;;;;;;;5073730;28;20457;-70
2023/06/02 08:13:39;;;;;;;13.73;5.57;;;;;;;;;;5073572;28;20534;-71
2023/06/02 08:16:07;;;;;;;12.00;4.70;;;;;;;;;;5073226;28;20490;-70
2023/06/02 08:18:35;;;;;;;7.43;4.20;;;;;;;;;;5072607;28;20447;-70
2023/06/02 08:21:04;;;;;;;10.93;4.50;;;;;;;;;;5073255;28;20457;-70
2023/06/02 08:23:32;;;;;;;14.93;7.93;;;;;;;;;;5072993;28;20479;-70
2023/06/02 08:26:00;;;;;;;16.63;5.27;;;;;;;;;;5073263;28;20843;-70
2023/06/02 08:28:29;;;;;;;10.50;5.13;;;;;;;;;;5072934;28;20453;-70
2023/06/02 08:30:58;;;;;;;17.33;5.67;;;;;;;;;;5073186;28;20455;-70
2023/06/02 08:33:26;;;;;;;12.30;4.80;;;;;;;;;;5072377;28;20477;-70
2023/06/02 08:35:55;;;;;;;14.73;4.63;;;;;;;;;;5073014;28;20496;-70
2023/06/02 08:38:22;;;;;;;11.07;5.10;;;;;;;;;;5072860;28;20504;-72
2023/06/02 08:40:50;;;;;;;12.10;4.80;;;;;;;;;;5073202;28;20502;-71
2023/06/02 08:43:17;;;;;;;14.30;5.23;;;;;;;;;;5073261;28;20452;-70
2023/06/02 08:45:46;;;;;;;14.10;5.10;;;;;;;;;;5073383;28;20479;-70
2023/06/02 08:48:15;;;;;;;9.20;4.67;;;;;;;;;;5072839;28;20454;-71
2023/06/02 08:50:44;;;;;;;11.33;4.60;;;;;;;;;;5073135;28;20466;-71
2023/06/02 08:53:15;;;;;;;15.63;5.17;;;;;;;;;;5073111;28;20527;-71
2023/06/02 08:55:42;;;;;;;11.73;5.00;;;;;;;;;;5072850;28;20916;-71
2023/06/02 08:58:10;;;;;;;8.97;3.97;;;;;;;;;;5073769;28;20504;-71
2023/06/02 09:00:37;;;;;;;8.30;4.57;;;;;;;;;;5072936;28;20432;-71
2023/06/02 09:03:05;;;;;;;12.93;5.10;;;;;;;;;;5073012;28;20437;-71
2023/06/02 09:05:32;;;;;;;17.10;4.83;;;;;;;;;;5072555;28;20472;-70
2023/06/02 09:08:09;;;;;;;10.33;4.77;;;;;;;;;;5072958;28;20518;-71
2023/06/02 09:10:40;;;;;;;13.63;5.40;;;;;;;;;;5073144;28;20442;-70
2023/06/02 09:13:07;;;;;;;8.93;5.40;;;;;;;;;;5072955;28;20434;-69
2023/06/02 09:15:36;;;;;;;16.07;5.47;;;;;;;;;;5072746;28;20472;-69
2023/06/02 09:18:14;;;;;;;11.87;5.47;;;;;;;;;;5073118;28;20428;-70
2023/06/02 09:20:41;;;;;;;12.70;5.50;;;;;;;;;;5072733;28;20909;-69
2023/06/02 09:23:09;;;;;;;14.53;4.87;;;;;;;;;;5072837;28;20795;-69
2023/06/02 09:25:40;;;;;;;10.03;6.17;;;;;;;;;;5072303;28;20480;-69
2023/06/02 09:28:09;;;;;;;13.80;6.90;;;;;;;;;;5072835;28;20905;-70
2023/06/02 09:30:36;;;;;;;15.23;5.00;;;;;;;;;;5074326;28;20437;-70
2023/06/02 09:33:07;;;;;;;13.07;5.00;;;;;;;;;;5076667;28;20444;-69
2023/06/02 09:35:35;;;;;;;16.03;4.90;;;;;;;;;;5076536;28;20413;-70
2023/06/02 09:38:02;;;;;;;15.20;5.87;;;;;;;;;;5076522;28;20435;-70
2023/06/02 09:40:30;;;;;;;22.73;5.10;;;;;;;;;;5076385;28;20444;-69
2023/06/02 09:42:58;;;;;;;17.90;6.27;;;;;;;;;;5076027;28;20441;-69
2023/06/02 09:45:25;;;;;;;25.63;6.00;;;;;;;;;;5075663;28;20485;-70
2023/06/02 09:47:53;;;;;;;11.80;4.90;;;;;;;;;;5076953;28;20535;-70
2023/06/02 09:50:33;;;;;;;16.83;6.70;;;;;;;;;;5075862;28;20440;-70
2023/06/02 09:53:04;;;;;;;6.37;4.73;;;;;;;;;;5076216;28;20447;-70
2023/06/02 09:55:33;;;;;;;15.77;5.33;;;;;;;;;;5076594;28;20947;-70
2023/06/02 09:58:01;;;;;;;12.30;5.60;;;;;;;;;;5076371;28;20440;-69
2023/06/02 10:00:29;;;;;;;9.47;4.93;;;;;;;;;;5075645;28;20442;-69
2023/06/02 10:02:56;;;;;;;12.30;5.53;;;;;;;;;;5076399;28;20443;-69
2023/06/02 10:05:23;;;;;;;12.63;5.00;;;;;;;;;;5075439;28;20506;-70
2023/06/02 10:07:57;;;;;;;18.60;5.17;;;;;;;;;;5075831;28;20523;-70
2023/06/02 10:10:31;;;;;;;20.03;5.73;;;;;;;;;;5075874;28;20425;-70
2023/06/02 10:13:09;;;;;;;10.03;4.80;;;;;;;;;;5075546;28;20438;-70
2023/06/02 10:15:51;;;;;;;12.57;4.73;;;;;;;;;;5075416;28;20941;-70
2023/06/02 10:18:26;;;;;;;12.27;5.40;;;;;;;;;;5075856;28;20480;-70
2023/06/02 10:20:59;;;;;;;14.13;6.40;;;;;;;;;;5075711;28;20432;-69
2023/06/02 10:23:32;;;;;;;12.93;5.57;;;;;;;;;;5075380;28;20524;-70
2023/06/02 10:26:07;;;;;;;15.23;5.00;;;;;;;;;;5075190;28;20480;-69
2023/06/02 10:28:36;;;;;;;8.73;4.73;;;;;;;;;;5076329;28;20439;-70
2023/06/02 10:31:07;;;;;;;23.63;6.77;;;;;;;;;;5075287;28;20442;-70
2023/06/02 10:33:45;;;;;;;13.83;5.90;;;;;;;;;;5076164;28;20470;-70
2023/06/02 10:36:13;;;;;;;13.13;5.77;;;;;;;;;;5075550;28;20447;-69
2023/06/02 10:38:41;;;;;;;17.33;5.20;;;;;;;;;;5075348;28;20440;-69
2023/06/02 10:41:08;;;;;;;28.53;7.47;;;;;;;;;;5074842;28;20446;-70
2023/06/02 10:43:37;;;;;;;11.43;6.00;;;;;;;;;;5074938;28;20775;-69
2023/06/02 10:46:17;;;;;;;9.80;5.03;;;;;;;;;;5075147;28;20482;-70
2023/06/02 10:48:44;;;;;;;15.53;5.80;;;;;;;;;;5075117;28;20444;-69
2023/06/02 10:51:13;;;;;;;16.73;5.70;;;;;;;;;;5074683;28;20442;-69
2023/06/02 10:53:58;;;;;;;13.77;5.60;;;;;;;;;;5074986;28;20456;-70
2023/06/02 10:56:41;;;;;;;14.80;5.83;;;;;;;;;;5074871;28;20446;-70
2023/06/02 10:59:10;;;;;;;14.70;6.43;;;;;;;;;;5075150;28;20454;-70
2023/06/02 11:01:47;;;;;;;14.83;5.50;;;;;;;;;;5074370;28;20523;-70
2023/06/02 11:04:31;;;;;;;11.57;5.80;;;;;;;;;;5074523;28;20922;-70
2023/06/02 11:07:15;;;;;;;16.73;5.40;;;;;;;;;;5074933;28;20469;-70
2023/06/02 11:09:43;;;;;;;12.60;6.00;;;;;;;;;;5074662;28;20496;-69
2023/06/02 11:12:11;;;;;;;10.33;5.20;;;;;;;;;;5074594;28;20439;-70
2023/06/02 11:15:04;;;;;;;9.53;6.17;;;;;;;;;;5074869;28;20436;-70
2023/06/02 11:17:33;;;;;;;8.70;5.80;;;;;;;;;;5059933;28;20527;-70
2023/06/02 11:20:00;;;;;;;14.77;6.70;;;;;;;;;;5074595;28;20811;-70
2023/06/02 11:22:28;;;;;;;16.33;6.00;;;;;;;;;;5074357;28;20793;-70
2023/06/02 11:24:56;;;;;;;8.90;6.53;;;;;;;;;;5074396;28;20442;-69
2023/06/02 11:27:36;;;;;;;10.87;5.43;;;;;;;;;;5074716;28;20479;-69
2023/06/02 11:30:11;;;;;;;11.63;7.60;;;;;;;;;;5074442;28;20828;-70
2023/06/02 11:32:39;;;;;;;18.43;7.70;;;;;;;;;;5074343;28;20809;-69
2023/06/02 11:35:08;;;;;;;10.10;5.33;;;;;;;;;;5074069;28;20475;-69
2023/06/02 11:37:36;;;;;;;13.07;5.90;;;;;;;;;;5074801;28;20447;-70
2023/06/02 11:40:05;;;;;;;10.57;5.60;;;;;;;;;;5074115;28;20450;-72
2023/06/02 11:42:36;;;;;;;15.03;6.70;;;;;;;;;;5073941;28;20485;-70
2023/06/02 11:45:04;;;;;;;9.33;5.60;;;;;;;;;;5073796;28;20463;-68
2023/06/02 11:47:31;;;;;;;11.87;6.37;;;;;;;;;;5073488;28;20478;-68
2023/06/02 11:50:00;;;;;;;10.57;6.70;;;;;;;;;;5073725;28;20435;-68
2023/06/02 11:52:27;;;;;;;13.23;6.07;;;;;;;;;;5073425;28;20444;-68
2023/06/02 11:54:56;;;;;;;11.23;6.30;;;;;;;;;;5073759;28;20454;-68
2023/06/02 11:57:28;;;;;;;17.50;6.90;;;;;;;;;;5072783;28;20463;-69
2023/06/02 12:00:15;;;;;;;13.40;7.00;;;;;;;;;;5073003;28;20452;-70
2023/06/02 12:02:48;;;;;;;21.20;8.20;;;;;;;;;;5073367;28;20431;-70
2023/06/02 12:05:31;;;;;;;13.03;6.93;;;;;;;;;;5072745;28;20956;-69
2023/06/02 12:07:58;;;;;;;12.70;6.63;;;;;;;;;;5072647;28;20470;-68
2023/06/02 12:10:34;;;;;;;9.67;7.07;;;;;;;;;;5073104;28;20447;-68
2023/06/02 12:13:01;;;;;;;10.97;6.53;;;;;;;;;;5073070;28;20438;-68
2023/06/02 12:15:33;;;;;;;12.00;7.60;;;;;;;;;;5073134;28;20475;-68
2023/06/02 12:18:00;;;;;;;14.40;6.53;;;;;;;;;;5072904;28;20433;-67
2023/06/02 12:20:36;;;;;;;9.13;6.13;;;;;;;;;;5073214;28;20435;-69
2023/06/02 12:23:03;;;;;;;12.20;6.13;;;;;;;;;;5072903;28;20485;-68
2023/06/02 12:25:30;;;;;;;8.57;4.90;;;;;;;;;;5073579;28;20450;-68
2023/06/02 12:28:05;;;;;;;10.00;5.73;;;;;;;;;;5072969;28;20479;-68
2023/06/02 12:30:33;;;;;;;10.50;5.63;;;;;;;;;;5072989;28;20421;-68
2023/06/02 12:33:05;;;;;;;11.13;6.57;;;;;;;;;;5072899;28;20992;-68
2023/06/02 12:35:33;;;;;;;9.37;5.30;;;;;;;;;;5072856;28;20899;-68
2023/06/02 12:38:03;;;;;;;8.50;5.50;;;;;;;;;;5073081;28;20456;-68
2023/06/02 12:40:30;;;;;;;7.60;5.67;;;;;;;;;;5072906;28;20444;-68
2023/06/02 12:42:57;;;;;;;15.67;6.60;;;;;;;;;;5072944;28;20448;-69
2023/06/02 12:45:24;;;;;;;12.13;5.50;;;;;;;;;;5073096;28;20487;-69
2023/06/02 12:47:52;;;;;;;12.10;5.57;;;;;;;;;;5072666;28;20560;-71
2023/06/02 12:50:20;;;;;;;7.40;5.17;;;;;;;;;;5072980;28;20801;-68
2023/06/02 12:52:47;;;;;;;12.57;6.00;;;;;;;;;;5072613;28;20452;-72
2023/06/02 12:55:16;;;;;;;12.53;5.40;;;;;;;;;;5072760;28;20472;-69
2023/06/02 12:57:43;;;;;;;12.60;5.70;;;;;;;;;;5072546;28;20517;-69
2023/06/02 13:00:11;;;;;;;9.27;4.97;;;;;;;;;;5072552;28;20456;-69
2023/06/02 13:02:40;;;;;;;10.10;4.40;;;;;;;;;;5072425;28;20925;-69
2023/06/02 13:05:07;;;;;;;7.73;4.17;;;;;;;;;;5073865;28;20539;-69
2023/06/02 13:07:36;;;;;;;11.70;4.50;;;;;;;;;;5076785;28;20483;-69
2023/06/02 13:10:03;;;;;;;12.50;5.67;;;;;;;;;;5076857;28;20432;-69
2023/06/02 13:12:32;;;;;;;7.27;5.00;;;;;;;;;;5076276;28;20452;-69
2023/06/02 13:14:59;;;;;;;11.63;5.47;;;;;;;;;;5075881;28;20448;-68
2023/06/02 13:17:27;;;;;;;11.20;4.53;;;;;;;;;;5077032;28;20469;-69
2023/06/02 13:19:54;;;;;;;8.73;4.43;;;;;;;;;;5076554;28;20448;-68
2023/06/02 13:22:21;;;;;;;8.03;4.40;;;;;;;;;;5076501;28;20480;-69
2023/06/02 13:24:49;;;;;;;9.97;4.23;;;;;;;;;;5076482;28;20500;-68
2023/06/02 13:27:16;;;;;;;9.40;3.93;;;;;;;;;;5076228;28;20495;-68
2023/06/02 13:29:45;;;;;;;6.60;4.53;;;;;;;;;;5076500;28;20436;-68
2023/06/02 13:32:12;;;;;;;11.00;4.47;;;;;;;;;;5076373;28;20531;-69
2023/06/02 13:34:42;;;;;;;10.90;4.90;;;;;;;;;;5075604;28;20476;-67
2023/06/02 13:37:09;;;;;;;7.47;4.00;;;;;;;;;;5076164;28;20535;-67
2023/06/02 13:39:36;;;;;;;6.30;3.73;;;;;;;;;;5075912;28;21040;-67
2023/06/02 13:42:04;;;;;;;10.13;4.47;;;;;;;;;;5076518;28;20437;-68
2023/06/02 13:44:31;;;;;;;13.40;4.17;;;;;;;;;;5075569;28;20949;-68
2023/06/02 13:47:00;;;;;;;10.77;4.43;;;;;;;;;;5076382;28;20502;-67
2023/06/02 13:49:27;;;;;;;6.83;3.90;;;;;;;;;;5075909;28;20445;-68
2023/06/02 13:51:54;;;;;;;9.70;3.90;;;;;;;;;;5075715;28;20451;-68
2023/06/02 13:54:21;;;;;;;6.73;3.53;;;;;;;;;;5075155;28;20444;-67
2023/06/02 13:56:48;;;;;;;5.97;4.10;;;;;;;;;;5075738;28;20454;-67
2023/06/02 13:59:16;;;;;;;6.67;4.40;;;;;;;;;;5075712;28;20438;-68
2023/06/02 14:01:43;;;;;;;8.47;3.80;;;;;;;;;;5075858;28;20468;-67
2023/06/02 14:04:11;;;;;;;8.77;4.30;;;;;;;;;;5075724;28;20569;-67
2023/06/02 14:06:39;;;;;;;15.83;6.20;;;;;;;;;;5075673;28;20929;-67
2023/06/02 14:09:07;;;;;;;11.50;4.10;;;;;;;;;;5075364;28;20451;-67
2023/06/02 14:11:36;;;;;;;5.50;4.17;;;;;;;;;;5075277;28;20531;-67
2023/06/02 14:14:04;;;;;;;6.77;3.87;;;;;;;;;;5075091;28;20528;-68
2023/06/02 14:16:31;;;;;;;10.30;5.33;;;;;;;;;;5074056;28;20492;-67
2023/06/02 14:18:58;;;;;;;9.60;5.57;;;;;;;;;;5075387;28;20437;-67
2023/06/02 14:21:27;;;;;;;8.70;4.57;;;;;;;;;;5075714;28;20437;-67
2023/06/02 14:23:54;;;;;;;13.77;4.40;;;;;;;;;;5075266;28;20451;-67
2023/06/02 14:26:21;;;;;;;9.50;4.37;;;;;;;;;;5074941;28;20449;-68
2023/06/02 14:28:49;;;;;;;12.47;4.50;;;;;;;;;;5075113;28;20828;-67
2023/06/02 14:31:18;;;;;;;7.80;4.43;;;;;;;;;;5075317;28;20445;-67
2023/06/02 14:33:45;;;;;;;22.33;5.37;;;;;;;;;;5074465;28;20489;-67
2023/06/02 14:36:12;;;;;;;6.50;4.27;;;;;;;;;;5075172;28;20440;-67
2023/06/02 14:38:41;;;;;;;9.90;4.60;;;;;;;;;;5074908;28;20956;-68
2023/06/02 14:41:08;;;;;;;16.47;5.33;;;;;;;;;;5074956;28;20433;-67